createdAt,value
2023-02-06T00:00:51.395Z,76.69
2023-02-06T00:03:18.072Z,76.84
2023-02-06T00:05:44.445Z,76.86
2023-02-06T00:08:10.801Z,77.07
2023-02-06T00:10:37.178Z,77.15
2023-02-06T00:13:03.586Z,76.85
2023-02-06T00:15:29.942Z,77.37
2023-02-06T00:17:56.340Z,77.04
2023-02-06T00:20:22.696Z,78.23
2023-02-06T00:22:49.020Z,77.61
2023-02-06T00:25:15.381Z,77.26
2023-02-06T00:27:41.715Z,76.87
2023-02-06T00:30:08.351Z,76.81
2023-02-06T00:32:35.212Z,77.50
2023-02-06T00:35:01.718Z,76.82
2023-02-06T00:37:28.048Z,77.16
2023-02-06T00:39:54.561Z,76.69
2023-02-06T00:42:21.114Z,76.55
2023-02-06T00:44:47.462Z,76.28
2023-02-06T00:47:13.888Z,77.01
2023-02-06T00:49:40.213Z,76.81
2023-02-06T00:52:06.733Z,77.64
2023-02-06T00:54:33.105Z,77.39
2023-02-06T00:56:59.488Z,77.43
2023-02-06T00:59:25.989Z,77.94
2023-02-06T01:01:52.333Z,77.30
2023-02-06T01:04:18.693Z,77.70
2023-02-06T01:06:45.050Z,77.62
2023-02-06T01:09:11.439Z,78.00
2023-02-06T01:11:37.793Z,78.34
2023-02-06T01:14:04.202Z,78.41
2023-02-06T01:16:30.687Z,79.06
2023-02-06T01:18:57.040Z,78.80
2023-02-06T01:21:24.960Z,79.14
2023-02-06T01:23:53.691Z,79.30
2023-02-06T01:26:23.326Z,79.58
2023-02-06T01:28:50.498Z,79.51
2023-02-06T01:31:21.502Z,79.43
2023-02-06T01:33:48.923Z,79.39
2023-02-06T01:36:16.777Z,79.88
2023-02-06T01:38:43.372Z,80.04
2023-02-06T01:41:11.484Z,79.47
2023-02-06T01:43:44.540Z,79.56
2023-02-06T01:46:11.076Z,79.92
2023-02-06T01:48:42.713Z,79.79
2023-02-06T01:51:14.504Z,80.51
2023-02-06T01:53:44.311Z,80.09
2023-02-06T01:56:11.045Z,80.09
2023-02-06T01:58:41.309Z,80.68
2023-02-06T02:01:08.643Z,80.56
2023-02-06T02:03:39.017Z,81.11
2023-02-06T02:06:10.075Z,80.93
2023-02-06T02:08:42.492Z,80.50
2023-02-06T02:11:11.863Z,79.93
2023-02-06T02:13:38.934Z,79.91
2023-02-06T02:16:43.744Z,79.84
2023-02-06T02:19:37.195Z,80.43
2023-02-06T02:22:22.248Z,80.65
2023-02-06T02:25:05.986Z,81.08
2023-02-06T02:27:46.938Z,81.12
2023-02-06T02:30:35.158Z,79.71
2023-02-06T02:33:37.173Z,80.12
2023-02-06T02:36:28.566Z,79.73
2023-02-06T02:39:26.007Z,79.72
2023-02-06T02:42:03.888Z,79.63
2023-02-06T02:44:52.622Z,79.74
2023-02-06T02:47:23.687Z,79.56
2023-02-06T02:49:50.378Z,79.80
2023-02-06T02:52:16.726Z,79.17
2023-02-06T02:54:43.107Z,80.11
2023-02-06T02:57:14.599Z,80.42
2023-02-06T02:59:45.429Z,79.10
2023-02-06T03:02:21.941Z,79.37
2023-02-06T03:04:53.015Z,79.44
2023-02-06T03:07:37.608Z,78.55
2023-02-06T03:10:37.496Z,78.63
2023-02-06T03:13:16.200Z,77.88
2023-02-06T03:16:03.044Z,77.22
2023-02-06T03:18:52.579Z,77.51
2023-02-06T03:21:21.821Z,78.12
2023-02-06T03:23:52.760Z,79.01
2023-02-06T03:26:23.136Z,77.62
2023-02-06T03:28:52.946Z,77.31
2023-02-06T03:31:26.827Z,77.22
2023-02-06T03:34:03.440Z,77.30
2023-02-06T03:36:29.912Z,77.17
2023-02-06T03:38:56.381Z,77.32
2023-02-06T03:41:28.048Z,77.34
2023-02-06T03:43:55.598Z,76.96
2023-02-06T03:46:24.178Z,76.76
2023-02-06T03:48:55.716Z,76.14
2023-02-06T03:51:28.308Z,77.23
2023-02-06T03:53:58.462Z,77.99
2023-02-06T03:56:34.723Z,77.77
2023-02-06T03:59:01.236Z,78.06
2023-02-06T04:01:27.914Z,76.92
2023-02-06T04:03:54.690Z,76.86
2023-02-06T04:06:21.444Z,76.07
2023-02-06T04:08:47.815Z,76.45
2023-02-06T04:11:14.135Z,76.50
2023-02-06T04:13:40.501Z,77.37
2023-02-06T04:16:06.832Z,76.61
2023-02-06T04:18:33.260Z,75.84
2023-02-06T04:21:05.282Z,75.64
2023-02-06T04:23:31.805Z,76.76
2023-02-06T04:25:58.176Z,77.79
2023-02-06T04:28:24.667Z,78.21
2023-02-06T04:30:51.088Z,78.20
2023-02-06T04:33:18.091Z,77.39
2023-02-06T04:35:44.451Z,76.59
2023-02-06T04:38:10.793Z,76.38
2023-02-06T04:40:37.103Z,76.64
2023-02-06T04:43:03.446Z,77.04
2023-02-06T04:45:29.811Z,76.62
2023-02-06T04:47:57.928Z,76.55
2023-02-06T04:50:26.012Z,76.20
2023-02-06T04:52:52.349Z,76.99
2023-02-06T04:55:18.829Z,77.20
2023-02-06T04:57:45.160Z,77.78
2023-02-06T05:00:12.138Z,77.33
2023-02-06T05:02:39.736Z,77.63
2023-02-06T05:05:08.151Z,77.67
2023-02-06T05:07:35.311Z,78.75
2023-02-06T05:10:02.272Z,78.67
2023-02-06T05:12:31.260Z,78.11
2023-02-06T05:14:57.620Z,78.80
2023-02-06T05:17:24.029Z,79.02
2023-02-06T05:19:50.458Z,78.51
2023-02-06T05:22:16.928Z,78.68
2023-02-06T05:24:43.322Z,78.78
2023-02-06T05:27:10.060Z,78.46
2023-02-06T05:29:36.500Z,78.55
2023-02-06T05:32:02.867Z,79.18
2023-02-06T05:34:29.237Z,79.41
2023-02-06T05:36:55.710Z,80.25
2023-02-06T05:39:22.172Z,80.97
2023-02-06T05:41:48.541Z,81.26
2023-02-06T05:44:14.992Z,81.65
2023-02-06T05:46:41.360Z,81.48
2023-02-06T05:49:07.800Z,81.03
2023-02-06T05:51:34.195Z,82.43
2023-02-06T05:54:00.622Z,82.11
2023-02-06T05:56:27.040Z,82.88
2023-02-06T05:58:53.750Z,83.00
2023-02-06T06:01:20.258Z,83.25
2023-02-06T06:03:46.671Z,83.17
2023-02-06T06:06:13.012Z,83.32
2023-02-06T06:08:39.393Z,83.18
2023-02-06T06:11:07.176Z,83.27
2023-02-06T06:13:34.154Z,83.10
2023-02-06T06:16:00.594Z,83.25
2023-02-06T06:18:27.058Z,83.22
2023-02-06T06:20:53.565Z,83.26
2023-02-06T06:23:19.934Z,83.78
2023-02-06T06:25:47.211Z,83.16
2023-02-06T06:28:15.080Z,83.44
2023-02-06T06:30:41.842Z,83.59
2023-02-06T06:33:08.362Z,84.15
2023-02-06T06:35:35.055Z,83.53
2023-02-06T06:38:01.654Z,83.31
2023-02-06T06:40:28.009Z,83.33
2023-02-06T06:42:54.372Z,83.34
2023-02-06T06:45:20.847Z,83.73
2023-02-06T06:47:47.231Z,83.70
2023-02-06T06:50:13.552Z,83.87
2023-02-06T06:52:39.883Z,83.70
2023-02-06T06:55:06.694Z,83.49
2023-02-06T06:57:33.091Z,84.24
2023-02-06T06:59:59.440Z,84.78
2023-02-06T07:02:25.850Z,84.70
2023-02-06T07:04:52.178Z,84.32
2023-02-06T07:07:18.544Z,84.43
2023-02-06T07:09:44.918Z,84.52
2023-02-06T07:12:11.381Z,84.85
2023-02-06T07:14:37.721Z,85.12
2023-02-06T07:17:04.056Z,85.56
2023-02-06T07:19:30.396Z,86.10
2023-02-06T07:21:57.907Z,85.56
2023-02-06T07:24:24.261Z,85.28
2023-02-06T07:26:50.643Z,85.38
2023-02-06T07:29:17.120Z,85.17
2023-02-06T07:31:43.454Z,85.47
2023-02-06T07:34:09.788Z,85.51
2023-02-06T07:36:36.201Z,84.83
2023-02-06T07:39:03.980Z,85.32
2023-02-06T07:41:30.372Z,85.35
2023-02-06T07:43:56.724Z,84.99
2023-02-06T07:46:23.176Z,84.71
2023-02-06T07:48:49.630Z,85.05
2023-02-06T07:51:16.113Z,84.94
2023-02-06T07:53:42.671Z,84.95
2023-02-06T07:56:10.943Z,85.26
2023-02-06T07:58:37.359Z,85.15
2023-02-06T08:01:05.361Z,85.86
2023-02-06T08:03:32.152Z,86.09
2023-02-06T08:05:58.562Z,85.75
2023-02-06T08:08:25.324Z,85.60
2023-02-06T08:10:52.299Z,85.38
2023-02-06T08:13:18.669Z,85.49
2023-02-06T08:15:45.001Z,85.54
2023-02-06T08:18:11.344Z,85.43
2023-02-06T08:20:37.681Z,85.20
2023-02-06T08:23:04.135Z,85.47
2023-02-06T08:25:30.500Z,85.67
2023-02-06T08:27:56.837Z,85.12
2023-02-06T08:30:23.939Z,85.94
2023-02-06T08:32:50.355Z,85.84
2023-02-06T08:35:16.829Z,86.42
2023-02-06T08:37:43.307Z,85.84
2023-02-06T08:40:10.339Z,85.60
2023-02-06T08:42:36.655Z,85.50
2023-02-06T08:45:03.249Z,85.99
2023-02-06T08:47:29.602Z,85.68
2023-02-06T08:49:55.969Z,85.49
2023-02-06T08:52:23.194Z,85.92
2023-02-06T08:54:51.455Z,85.97
2023-02-06T08:57:17.799Z,85.40
2023-02-06T08:59:44.199Z,84.85
2023-02-06T09:02:11.579Z,85.33
2023-02-06T09:04:38.990Z,85.11
2023-02-06T09:07:05.349Z,85.82
2023-02-06T09:09:31.759Z,85.34
2023-02-06T09:12:03.160Z,85.56
2023-02-06T09:14:29.917Z,85.13
2023-02-06T09:16:59.167Z,84.96
2023-02-06T09:19:26.397Z,85.30
2023-02-06T09:21:53.299Z,84.94
2023-02-06T09:24:20.130Z,84.86
2023-02-06T09:26:58.879Z,84.22
2023-02-06T09:29:28.750Z,83.98
2023-02-06T09:31:57.061Z,84.61
2023-02-06T09:34:25.621Z,84.45
2023-02-06T09:36:54.314Z,84.09
2023-02-06T09:39:20.745Z,83.96
2023-02-06T09:41:53.918Z,83.99
2023-02-06T09:44:27.156Z,84.14
2023-02-06T09:47:06.450Z,85.02
2023-02-06T09:49:43.380Z,84.67
2023-02-06T09:52:18.293Z,84.42
2023-02-06T09:55:08.103Z,84.46
2023-02-06T09:57:56.856Z,84.45
2023-02-06T10:00:23.147Z,84.45
2023-02-06T10:03:20.457Z,84.36
2023-02-06T10:05:57.698Z,83.91
2023-02-06T10:08:44.917Z,84.36
2023-02-06T10:11:32.885Z,84.58
2023-02-06T10:14:04.796Z,84.32
2023-02-06T10:16:58.281Z,84.33
2023-02-06T10:19:49.523Z,85.07
2023-02-06T10:22:20.997Z,84.11
2023-02-06T10:25:01.987Z,84.06
2023-02-06T10:27:28.386Z,84.05
2023-02-06T10:29:54.771Z,84.98
2023-02-06T10:32:40.553Z,84.77
2023-02-06T10:36:08.503Z,84.84
2023-02-06T10:38:49.643Z,84.36
2023-02-06T10:41:39.884Z,84.74
2023-02-06T10:44:24.053Z,84.28
2023-02-06T10:46:53.081Z,84.28
2023-02-06T10:49:31.518Z,83.37
2023-02-06T10:52:01.363Z,84.04
2023-02-06T10:54:38.682Z,83.76
2023-02-06T10:57:13.895Z,84.38
2023-02-06T10:59:45.588Z,85.03
2023-02-06T11:02:23.351Z,83.40
2023-02-06T11:05:10.154Z,83.95
2023-02-06T11:07:41.997Z,82.71
2023-02-06T11:10:14.169Z,82.95
2023-02-06T11:12:49.222Z,82.93
2023-02-06T11:15:23.494Z,83.23
2023-02-06T11:17:52.739Z,82.28
2023-02-06T11:20:23.172Z,82.04
2023-02-06T11:22:53.059Z,82.14
2023-02-06T11:25:28.066Z,80.41
2023-02-06T11:27:55.930Z,80.67
2023-02-06T11:30:39.957Z,80.37
2023-02-06T11:33:22.131Z,79.47
2023-02-06T11:35:52.749Z,80.08
2023-02-06T11:38:22.790Z,80.39
2023-02-06T11:41:03.143Z,81.00
2023-02-06T11:43:41.324Z,79.48
2023-02-06T11:46:17.519Z,79.46
2023-02-06T11:49:07.940Z,78.67
2023-02-06T11:52:26.179Z,78.66
2023-02-06T11:54:56.854Z,79.11
2023-02-06T11:57:26.384Z,79.38
2023-02-06T11:59:54.882Z,80.50
2023-02-06T12:02:28.703Z,80.50
2023-02-06T12:05:03.026Z,79.96
2023-02-06T12:07:37.775Z,80.39
2023-02-06T12:10:18.844Z,79.99
2023-02-06T12:12:57.797Z,79.68
2023-02-06T12:15:45.912Z,79.67
2023-02-06T12:18:17.462Z,79.92
2023-02-06T12:21:27.326Z,80.39
2023-02-06T12:23:58.883Z,79.84
2023-02-06T12:26:29.049Z,79.61
2023-02-06T12:29:09.560Z,80.34
2023-02-06T12:31:47.510Z,77.07
2023-02-06T12:34:19.487Z,76.70
2023-02-06T12:37:14.422Z,75.36
2023-02-06T12:39:43.076Z,74.40
2023-02-06T12:42:31.892Z,72.79
2023-02-06T12:45:19.475Z,68.93
2023-02-06T12:48:15.190Z,68.69
2023-02-06T12:50:47.831Z,68.25
2023-02-06T12:53:28.222Z,68.28
2023-02-06T12:56:13.923Z,67.89
2023-02-06T12:58:43.184Z,67.60
2023-02-06T13:01:34.577Z,67.82
2023-02-06T13:04:05.687Z,69.63
2023-02-06T13:06:42.718Z,68.87
2023-02-06T13:09:20.471Z,68.36
2023-02-06T13:11:47.555Z,69.87
2023-02-06T13:14:24.632Z,70.44
2023-02-06T13:17:16.537Z,70.86
2023-02-06T13:19:42.899Z,70.68
2023-02-06T13:22:09.197Z,70.75
2023-02-06T13:24:41.067Z,70.61
2023-02-06T13:27:07.549Z,70.58
2023-02-06T13:29:48.140Z,70.79
2023-02-06T13:32:22.544Z,70.74
2023-02-06T13:34:48.837Z,71.05
2023-02-06T13:37:37.316Z,70.94
2023-02-06T13:40:21.955Z,71.33
2023-02-06T13:43:17.255Z,70.67
2023-02-06T13:46:00.008Z,70.85
2023-02-06T13:48:57.529Z,70.70
2023-02-06T13:51:59.384Z,71.73
2023-02-06T13:54:44.568Z,71.21
2023-02-06T13:57:27.985Z,71.89
2023-02-06T14:00:02.851Z,71.16
2023-02-06T14:02:39.121Z,71.62
2023-02-06T14:05:11.049Z,73.26
2023-02-06T14:07:50.504Z,72.68
2023-02-06T14:10:27.980Z,73.02
2023-02-06T14:13:03.202Z,73.17
2023-02-06T14:15:50.402Z,73.46
2023-02-06T14:18:27.006Z,73.23
2023-02-06T14:21:18.347Z,73.53
2023-02-06T14:23:50.442Z,73.99
2023-02-06T14:26:47.333Z,73.96
2023-02-06T14:29:49.692Z,74.55
2023-02-06T14:32:36.037Z,74.15
2023-02-06T14:35:36.701Z,74.19
2023-02-06T14:38:38.538Z,73.42
2023-02-06T14:41:05.135Z,73.86
2023-02-06T14:43:36.993Z,74.23
2023-02-06T14:46:08.674Z,74.27
2023-02-06T14:48:55.150Z,74.34
2023-02-06T14:51:28.536Z,74.24
2023-02-06T14:53:58.135Z,74.27
2023-02-06T14:56:30.383Z,73.92
2023-02-06T14:59:07.411Z,72.89
2023-02-06T15:01:33.868Z,72.83
2023-02-06T15:04:18.566Z,73.37
2023-02-06T15:06:57.246Z,72.91
2023-02-06T15:09:28.824Z,73.23
2023-02-06T15:11:58.670Z,72.85
2023-02-06T15:14:33.756Z,72.97
2023-02-06T15:17:02.558Z,73.03
2023-02-06T15:19:31.628Z,73.23
2023-02-06T15:22:01.340Z,73.57
2023-02-06T15:24:45.581Z,73.51
2023-02-06T15:27:27.824Z,73.62
2023-02-06T15:29:55.344Z,74.18
2023-02-06T15:32:29.825Z,74.08
2023-02-06T15:34:57.381Z,74.60
2023-02-06T15:37:35.334Z,74.64
2023-02-06T15:40:08.934Z,74.64
2023-02-06T15:42:36.508Z,74.63
2023-02-06T15:45:03.533Z,74.89
2023-02-06T15:47:30.742Z,74.90
2023-02-06T15:50:00.310Z,75.10
2023-02-06T15:52:43.067Z,74.99
2023-02-06T15:55:30.125Z,75.21
2023-02-06T15:57:58.328Z,75.09
2023-02-06T16:00:31.710Z,75.09
2023-02-06T16:03:03.718Z,75.23
2023-02-06T16:05:40.641Z,75.02
2023-02-06T16:08:16.078Z,75.22
2023-02-06T16:10:43.932Z,75.19
2023-02-06T16:13:15.990Z,75.58
2023-02-06T16:16:20.918Z,75.63
2023-02-06T16:18:48.849Z,75.77
2023-02-06T16:21:18.351Z,76.09
2023-02-06T16:24:00.134Z,75.96
2023-02-06T16:26:29.638Z,76.29
2023-02-06T16:29:24.486Z,76.04
2023-02-06T16:32:17.327Z,76.53
2023-02-06T16:34:45.965Z,76.69
2023-02-06T16:37:15.226Z,76.89
2023-02-06T16:39:43.243Z,76.91
2023-02-06T16:42:22.765Z,76.87
2023-02-06T16:44:57.516Z,76.92
2023-02-06T16:47:24.606Z,76.80
2023-02-06T16:54:13.566Z,76.76
2023-02-06T16:56:45.081Z,76.96
2023-02-06T16:59:25.907Z,77.11
2023-02-06T17:01:52.264Z,77.41
2023-02-06T17:04:19.023Z,77.43
2023-02-06T17:06:45.566Z,77.58
2023-02-06T17:09:13.866Z,77.51
2023-02-06T17:11:40.317Z,77.70
2023-02-06T17:14:06.640Z,77.95
2023-02-06T17:16:33.719Z,77.89
2023-02-06T17:19:00.172Z,77.80
2023-02-06T17:21:29.589Z,77.63
2023-02-06T17:23:56.002Z,78.11
2023-02-06T17:26:22.954Z,77.66
2023-02-06T17:28:50.594Z,77.51
2023-02-06T17:31:17.730Z,77.65
2023-02-06T17:33:44.282Z,77.98
2023-02-06T17:36:17.410Z,77.60
2023-02-06T17:38:44.293Z,77.89
2023-02-06T17:41:10.701Z,77.99
2023-02-06T17:43:37.458Z,77.42
2023-02-06T17:46:05.699Z,77.39
2023-02-06T17:48:36.699Z,77.57
2023-02-06T17:51:05.323Z,77.97
2023-02-06T17:53:34.496Z,77.36
2023-02-06T17:56:09.660Z,77.59
2023-02-06T17:58:36.022Z,77.30
2023-02-06T18:01:02.447Z,76.74
2023-02-06T18:03:28.870Z,76.99
2023-02-06T18:06:02.029Z,76.64
2023-02-06T18:08:29.203Z,77.08
2023-02-06T18:10:56.144Z,76.23
2023-02-06T18:13:24.257Z,76.75
2023-02-06T18:15:56.032Z,76.81
2023-02-06T18:18:24.751Z,76.29
2023-02-06T18:20:52.191Z,76.80
2023-02-06T18:23:21.425Z,76.66
2023-02-06T18:25:47.877Z,76.50
2023-02-06T18:28:14.945Z,76.00
2023-02-06T18:30:41.883Z,75.76
2023-02-06T18:33:08.888Z,76.39
2023-02-06T18:35:40.279Z,76.51
2023-02-06T18:38:09.657Z,77.47
2023-02-06T18:40:40.748Z,77.36
2023-02-06T18:43:07.694Z,77.89
2023-02-06T18:45:37.146Z,77.28
2023-02-06T18:48:05.660Z,77.77
2023-02-06T18:50:34.083Z,78.02
2023-02-06T18:53:00.465Z,78.47
2023-02-06T18:55:29.255Z,78.36
2023-02-06T18:57:56.481Z,78.12
2023-02-06T19:00:23.812Z,78.19
2023-02-06T19:02:50.478Z,78.04
2023-02-06T19:05:17.061Z,78.35
2023-02-06T19:07:43.621Z,78.30
2023-02-06T19:10:12.848Z,78.30
2023-02-06T19:12:39.295Z,78.84
2023-02-06T19:15:05.981Z,79.06
2023-02-06T19:17:32.961Z,78.79
2023-02-06T19:19:59.528Z,78.68
2023-02-06T19:22:26.394Z,78.89
2023-02-06T19:24:53.433Z,78.57
2023-02-06T19:27:21.194Z,78.55
2023-02-06T19:29:48.181Z,78.86
2023-02-06T19:32:14.765Z,78.93
2023-02-06T19:34:41.931Z,79.74
2023-02-06T19:37:10.017Z,79.44
2023-02-06T19:39:37.936Z,79.06
2023-02-06T19:42:06.701Z,79.21
2023-02-06T19:44:33.350Z,79.63
2023-02-06T19:47:00.216Z,79.76
2023-02-06T19:49:27.530Z,79.66
2023-02-06T19:51:53.960Z,79.93
2023-02-06T19:54:20.326Z,79.66
2023-02-06T19:56:47.727Z,80.26
2023-02-06T19:59:22.762Z,80.03
2023-02-06T20:01:53.409Z,80.55
2023-02-06T20:04:22.636Z,80.05
2023-02-06T20:06:51.008Z,80.25
2023-02-06T20:09:19.996Z,80.14
2023-02-06T20:11:48.179Z,80.04
2023-02-06T20:14:15.039Z,80.77
2023-02-06T20:16:43.077Z,80.62
2023-02-06T20:19:18.563Z,80.81
2023-02-06T20:21:48.368Z,80.48
2023-02-06T20:24:18.456Z,79.97
2023-02-06T20:26:45.564Z,80.16
2023-02-06T20:29:20.543Z,80.62
2023-02-06T20:31:47.354Z,80.52
2023-02-06T20:34:20.781Z,80.04
2023-02-06T20:36:48.306Z,80.73
2023-02-06T20:39:16.180Z,80.88
2023-02-06T20:41:43.279Z,80.69
2023-02-06T20:44:11.370Z,81.05
2023-02-06T20:46:38.167Z,81.00
2023-02-06T20:49:09.144Z,81.32
2023-02-06T20:51:35.695Z,81.40
2023-02-06T20:54:02.174Z,81.66
2023-02-06T20:56:28.660Z,81.52
2023-02-06T20:58:56.215Z,81.15
2023-02-06T21:01:25.928Z,81.14
2023-02-06T21:03:55.898Z,80.53
2023-02-06T21:06:22.850Z,80.48
2023-02-06T21:08:50.168Z,80.46
2023-02-06T21:11:17.477Z,80.72
2023-02-06T21:13:43.831Z,80.84
2023-02-06T21:16:13.448Z,80.42
2023-02-06T21:18:42.453Z,80.40
2023-02-06T21:21:11.736Z,81.22
2023-02-06T21:23:39.970Z,80.78
2023-02-06T21:26:07.601Z,80.90
2023-02-06T21:28:35.932Z,80.64
2023-02-06T21:31:09.404Z,80.21
2023-02-06T21:33:36.833Z,80.05
2023-02-06T21:36:06.948Z,80.06
2023-02-06T21:38:35.333Z,81.00
2023-02-06T21:41:19.887Z,80.43
2023-02-06T21:43:46.341Z,80.45
2023-02-06T21:46:13.527Z,80.82
2023-02-06T21:48:41.536Z,80.18
2023-02-06T21:51:11.408Z,80.29
2023-02-06T21:53:38.799Z,79.68
2023-02-06T21:56:08.039Z,80.23
2023-02-06T21:58:36.475Z,80.16
2023-02-06T22:01:08.516Z,79.59
2023-02-06T22:03:35.812Z,79.48
2023-02-06T22:06:08.604Z,79.29
2023-02-06T22:08:36.888Z,79.98
2023-02-06T22:11:30.629Z,79.16
2023-02-06T22:13:59.100Z,79.21
2023-02-06T22:16:26.563Z,79.24
2023-02-06T22:18:53.868Z,78.97
2023-02-06T22:21:22.894Z,79.53
2023-02-06T22:23:52.172Z,79.21
2023-02-06T22:26:21.013Z,79.30
2023-02-06T22:28:48.163Z,79.07
2023-02-06T22:31:24.272Z,78.92
2023-02-06T22:33:51.129Z,78.73
2023-02-06T22:36:20.404Z,79.21
2023-02-06T22:38:47.959Z,79.03
2023-02-06T22:41:16.868Z,79.11
2023-02-06T22:43:45.123Z,78.86
2023-02-06T22:46:19.612Z,78.76
2023-02-06T22:48:46.439Z,78.74
2023-02-06T22:51:13.078Z,77.90
2023-02-06T22:53:40.493Z,78.28
2023-02-06T22:56:27.321Z,78.45
2023-02-06T22:58:55.764Z,78.19
2023-02-06T23:01:24.894Z,77.98
2023-02-06T23:03:53.188Z,77.42
2023-02-06T23:06:20.231Z,77.38
2023-02-06T23:08:47.108Z,77.35
2023-02-06T23:11:15.009Z,76.86
2023-02-06T23:13:41.852Z,77.46
2023-02-06T23:16:09.520Z,77.81
2023-02-06T23:18:37.021Z,77.69
2023-02-06T23:21:12.452Z,77.21
2023-02-06T23:23:40.439Z,76.88
2023-02-06T23:26:10.318Z,77.10
2023-02-06T23:28:37.953Z,77.32
2023-02-06T23:31:05.800Z,77.39
2023-02-06T23:33:32.894Z,77.06
2023-02-06T23:36:19.581Z,76.75
2023-02-06T23:38:47.810Z,76.68
2023-02-06T23:41:20.252Z,76.99
2023-02-06T23:43:51.727Z,76.38
2023-02-06T23:46:20.122Z,76.70
2023-02-06T23:48:48.167Z,76.25
2023-02-06T23:51:15.953Z,76.20
2023-02-06T23:53:42.616Z,76.08
2023-02-06T23:56:14.804Z,76.67
2023-02-06T23:58:41.539Z,76.79
